Time;durP1;ratioP1;P1;durP2;ratioP2;P2;SDS_P1;SDS_P2;PMS_P1;PMS_P2;Temp;Humidity;BMP_temperature;BMP_pressure;BME280_temperature;BME280_humidity;BME280_pressure;Samples;Min_cycle;Max_cycle;Signal;HPM_P1;HPM_P2
2023/07/08 00:00:59;;;;;;;8.85;7.93;;;;;;;;;;5047390;28;20103;-75
2023/07/08 00:03:24;;;;;;;7.95;7.13;;;;;;;;;;5045586;28;21042;-75
2023/07/08 00:05:52;;;;;;;9.80;7.93;;;;;;;;;;5062849;28;20044;-75
2023/07/08 00:08:19;;;;;;;8.23;7.47;;;;;;;;;;5045992;28;20056;-75
2023/07/08 00:10:44;;;;;;;9.05;8.25;;;;;;;;;;5047383;28;20459;-75
2023/07/08 00:13:10;;;;;;;9.82;7.88;;;;;;;;;;5047123;28;20039;-74
2023/07/08 00:15:36;;;;;;;11.98;8.77;;;;;;;;;;5046052;28;20428;-75
2023/07/08 00:18:01;;;;;;;8.63;7.40;;;;;;;;;;5046875;28;20024;-75
2023/07/08 00:20:41;;;;;;;8.40;7.57;;;;;;;;;;5047091;28;20028;-75
2023/07/08 00:23:08;;;;;;;9.18;8.10;;;;;;;;;;5046180;28;20050;-74
2023/07/08 00:25:34;;;;;;;8.82;7.90;;;;;;;;;;5046511;28;20036;-75
2023/07/08 00:27:59;;;;;;;9.65;8.18;;;;;;;;;;5047361;28;20073;-76
2023/07/08 00:30:24;;;;;;;10.27;8.38;;;;;;;;;;5046753;28;20017;-76
2023/07/08 00:32:54;;;;;;;8.98;8.00;;;;;;;;;;5050813;28;20028;-77
2023/07/08 00:35:25;;;;;;;11.48;8.60;;;;;;;;;;5057281;28;20119;-77
2023/07/08 00:37:52;;;;;;;9.32;8.35;;;;;;;;;;5052397;28;20119;-73
2023/07/08 00:40:19;;;;;;;11.70;8.50;;;;;;;;;;5044210;28;20017;-75
2023/07/08 00:42:45;;;;;;;8.65;7.82;;;;;;;;;;5047463;28;20343;-74
2023/07/08 00:45:16;;;;;;;11.98;8.10;;;;;;;;;;5046196;28;20090;-75
2023/07/08 00:47:41;;;;;;;10.68;8.20;;;;;;;;;;5047292;28;20429;-75
2023/07/08 00:50:11;;;;;;;11.35;8.18;;;;;;;;;;5052400;28;20107;-78
2023/07/08 00:52:36;;;;;;;9.95;8.70;;;;;;;;;;5047668;28;20078;-76
2023/07/08 00:55:05;;;;;;;11.00;8.27;;;;;;;;;;5048316;28;20032;-79
2023/07/08 00:57:33;;;;;;;8.18;7.45;;;;;;;;;;5058013;28;20348;-83
2023/07/08 01:00:00;;;;;;;8.35;7.53;;;;;;;;;;5050986;28;20044;-77
2023/07/08 01:02:27;;;;;;;10.93;8.20;;;;;;;;;;5046605;28;20028;-77
2023/07/08 01:04:56;;;;;;;9.05;8.15;;;;;;;;;;5044643;28;20040;-78
2023/07/08 01:07:23;;;;;;;9.63;8.63;;;;;;;;;;5046506;28;20725;-76
2023/07/08 01:09:51;;;;;;;11.20;8.50;;;;;;;;;;5053495;28;20025;-78
2023/07/08 01:12:18;;;;;;;9.32;8.43;;;;;;;;;;5047689;28;20448;-79
2023/07/08 01:14:44;;;;;;;11.50;8.57;;;;;;;;;;5059178;28;20017;-78
2023/07/08 01:17:13;;;;;;;9.10;8.18;;;;;;;;;;5057810;28;20517;-77
2023/07/08 01:19:40;;;;;;;13.02;8.35;;;;;;;;;;5048357;28;20094;-80
2023/07/08 01:22:05;;;;;;;10.50;8.52;;;;;;;;;;5053309;28;20038;-76
2023/07/08 01:24:32;;;;;;;10.35;8.80;;;;;;;;;;5063092;28;20683;-77
2023/07/08 01:26:58;;;;;;;9.68;8.38;;;;;;;;;;5054975;28;20472;-82
2023/07/08 01:29:23;;;;;;;14.63;9.30;;;;;;;;;;5051490;28;20067;-78
2023/07/08 01:31:49;;;;;;;11.02;8.45;;;;;;;;;;5056402;28;20055;-77
2023/07/08 01:34:18;;;;;;;10.23;8.48;;;;;;;;;;5064562;28;20068;-78
2023/07/08 01:36:48;;;;;;;10.93;8.27;;;;;;;;;;5052990;28;20364;-76
2023/07/08 01:39:15;;;;;;;11.70;8.18;;;;;;;;;;5050263;28;20047;-77
2023/07/08 01:41:41;;;;;;;8.32;7.53;;;;;;;;;;5060274;28;20028;-77
2023/07/08 01:44:18;;;;;;;9.00;8.20;;;;;;;;;;5054012;28;20029;-78
2023/07/08 01:46:44;;;;;;;8.63;7.72;;;;;;;;;;5061284;28;20029;-78
2023/07/08 01:49:09;;;;;;;15.88;8.43;;;;;;;;;;5050644;28;20475;-76
2023/07/08 01:51:35;;;;;;;10.45;9.30;;;;;;;;;;5059597;28;20058;-76
2023/07/08 01:54:00;;;;;;;12.20;8.27;;;;;;;;;;5053744;28;20021;-76
2023/07/08 01:56:25;;;;;;;10.90;9.00;;;;;;;;;;5063664;28;20079;-76
2023/07/08 01:58:51;;;;;;;12.38;8.55;;;;;;;;;;5058611;28;20062;-77
2023/07/08 02:01:16;;;;;;;12.15;9.02;;;;;;;;;;5050487;28;20012;-79
2023/07/08 02:03:41;;;;;;;9.73;7.95;;;;;;;;;;5055141;28;20028;-75
2023/07/08 02:06:08;;;;;;;10.75;8.75;;;;;;;;;;5057062;28;20037;-77
2023/07/08 02:08:33;;;;;;;10.88;8.55;;;;;;;;;;5052042;28;20452;-76
2023/07/08 02:10:58;;;;;;;10.05;9.05;;;;;;;;;;5063651;28;20096;-77
2023/07/08 02:13:24;;;;;;;9.23;8.32;;;;;;;;;;5053398;28;20304;-78
2023/07/08 02:15:50;;;;;;;10.07;9.00;;;;;;;;;;5049232;28;20029;-77
2023/07/08 02:18:15;;;;;;;11.35;9.43;;;;;;;;;;5054049;28;20029;-76
2023/07/08 02:20:42;;;;;;;10.27;8.75;;;;;;;;;;5063628;28;20027;-78
2023/07/08 02:23:07;;;;;;;9.80;8.80;;;;;;;;;;5052000;28;20026;-77
2023/07/08 02:25:32;;;;;;;10.82;9.68;;;;;;;;;;5061684;28;20032;-75
2023/07/08 02:27:58;;;;;;;9.98;9.07;;;;;;;;;;5063622;28;20089;-76
2023/07/08 02:30:26;;;;;;;10.05;9.05;;;;;;;;;;5061499;28;20102;-76
2023/07/08 02:32:58;;;;;;;12.32;8.82;;;;;;;;;;5061750;28;20525;-77
2023/07/08 02:35:27;;;;;;;11.25;9.13;;;;;;;;;;5052386;28;20042;-77
2023/07/08 02:37:54;;;;;;;10.18;9.20;;;;;;;;;;5053965;28;20086;-78
2023/07/08 02:40:19;;;;;;;10.40;9.40;;;;;;;;;;5059216;28;20086;-78
2023/07/08 02:42:45;;;;;;;9.85;8.90;;;;;;;;;;5062307;28;20020;-77
2023/07/08 02:45:11;;;;;;;9.73;8.65;;;;;;;;;;5061342;28;20036;-77
2023/07/08 02:47:36;;;;;;;10.30;9.30;;;;;;;;;;5050382;28;20426;-78
2023/07/08 02:50:02;;;;;;;9.85;8.95;;;;;;;;;;5051830;28;20103;-78
2023/07/08 02:52:30;;;;;;;14.27;9.02;;;;;;;;;;5047859;28;20024;-75
2023/07/08 02:54:55;;;;;;;10.43;9.20;;;;;;;;;;5048922;28;20123;-77
2023/07/08 02:57:20;;;;;;;9.27;8.25;;;;;;;;;;5053116;28;20434;-77
2023/07/08 02:59:46;;;;;;;10.68;9.57;;;;;;;;;;5060777;28;20029;-78
2023/07/08 03:02:11;;;;;;;11.50;9.38;;;;;;;;;;5063170;28;20039;-78
2023/07/08 03:04:39;;;;;;;11.10;9.38;;;;;;;;;;5063554;28;20131;-79
2023/07/08 03:07:05;;;;;;;9.35;8.38;;;;;;;;;;5059706;28;20052;-77
2023/07/08 03:09:32;;;;;;;11.75;9.75;;;;;;;;;;5055211;28;20078;-78
2023/07/08 03:11:57;;;;;;;9.73;8.73;;;;;;;;;;5062739;28;20107;-78
2023/07/08 03:14:22;;;;;;;9.98;9.07;;;;;;;;;;5053472;28;20100;-78
2023/07/08 03:16:48;;;;;;;10.18;9.27;;;;;;;;;;5059723;28;20020;-77
2023/07/08 03:19:15;;;;;;;11.05;9.95;;;;;;;;;;5061621;28;20048;-78
2023/07/08 03:21:40;;;;;;;9.82;8.77;;;;;;;;;;5061386;28;20024;-77
2023/07/08 03:24:10;;;;;;;9.80;8.80;;;;;;;;;;5051541;28;20033;-77
2023/07/08 03:26:36;;;;;;;9.85;8.57;;;;;;;;;;5062070;28;20086;-77
2023/07/08 03:29:02;;;;;;;13.57;8.93;;;;;;;;;;5061694;28;20029;-78
2023/07/08 03:31:27;;;;;;;9.60;8.70;;;;;;;;;;5061656;28;20404;-77
2023/07/08 03:33:52;;;;;;;12.15;8.98;;;;;;;;;;5062018;28;20424;-78
2023/07/08 03:36:24;;;;;;;12.07;9.35;;;;;;;;;;5062642;28;20620;-77
2023/07/08 03:38:51;;;;;;;11.55;8.38;;;;;;;;;;5047215;28;20079;-78
2023/07/08 03:41:17;;;;;;;12.10;9.10;;;;;;;;;;5051537;28;20060;-78
2023/07/08 03:43:42;;;;;;;10.57;9.55;;;;;;;;;;5055135;28;20109;-77
2023/07/08 03:46:10;;;;;;;13.25;8.93;;;;;;;;;;5055392;28;20060;-78
2023/07/08 03:48:35;;;;;;;9.32;8.43;;;;;;;;;;5055790;28;20031;-77
2023/07/08 03:51:00;;;;;;;9.77;8.60;;;;;;;;;;5049580;28;20032;-77
2023/07/08 03:53:26;;;;;;;10.30;9.05;;;;;;;;;;5047037;28;20103;-77
2023/07/08 03:55:51;;;;;;;9.52;8.55;;;;;;;;;;5057018;28;20058;-78
2023/07/08 03:58:16;;;;;;;10.32;9.25;;;;;;;;;;5061697;28;20024;-78
2023/07/08 04:00:42;;;;;;;11.40;9.10;;;;;;;;;;5057658;28;20103;-77
2023/07/08 04:03:10;;;;;;;9.20;8.30;;;;;;;;;;5050928;28;20056;-78
2023/07/08 04:05:36;;;;;;;10.80;9.70;;;;;;;;;;5052057;28;20070;-78
2023/07/08 04:08:01;;;;;;;12.07;8.23;;;;;;;;;;5050944;28;20281;-77
2023/07/08 04:10:26;;;;;;;9.70;8.70;;;;;;;;;;5056594;28;20024;-78
2023/07/08 04:12:52;;;;;;;9.57;8.45;;;;;;;;;;5057789;28;20432;-77
2023/07/08 04:15:17;;;;;;;11.90;8.02;;;;;;;;;;5059565;28;20024;-78
2023/07/08 04:17:45;;;;;;;17.50;9.52;;;;;;;;;;5061763;28;20028;-78
2023/07/08 04:20:11;;;;;;;13.70;9.38;;;;;;;;;;5061593;28;20033;-77
2023/07/08 04:22:36;;;;;;;12.13;8.90;;;;;;;;;;5055255;28;20021;-77
2023/07/08 04:25:04;;;;;;;13.38;8.73;;;;;;;;;;5054163;28;20020;-80
2023/07/08 04:27:29;;;;;;;10.70;8.75;;;;;;;;;;5059219;28;20023;-76
2023/07/08 04:29:54;;;;;;;10.85;9.15;;;;;;;;;;5049454;28;20020;-78
2023/07/08 04:32:24;;;;;;;9.45;8.38;;;;;;;;;;5057328;28;20123;-76
2023/07/08 04:34:49;;;;;;;10.50;9.35;;;;;;;;;;5057679;28;20419;-76
2023/07/08 04:37:15;;;;;;;11.35;9.43;;;;;;;;;;5052144;28;20029;-78
2023/07/08 04:39:40;;;;;;;14.25;8.80;;;;;;;;;;5046992;28;20548;-78
2023/07/08 04:42:05;;;;;;;9.63;8.30;;;;;;;;;;5058228;28;20133;-76
2023/07/08 04:44:32;;;;;;;8.63;7.65;;;;;;;;;;5052251;28;20033;-76
2023/07/08 04:46:57;;;;;;;9.68;8.05;;;;;;;;;;5054844;28;20047;-77
2023/07/08 04:49:23;;;;;;;15.20;8.48;;;;;;;;;;5057632;28;20028;-78
2023/07/08 04:51:50;;;;;;;9.13;8.20;;;;;;;;;;5056613;28;20016;-78
2023/07/08 04:54:15;;;;;;;9.77;8.80;;;;;;;;;;5049066;28;20340;-77
2023/07/08 04:56:42;;;;;;;11.05;8.95;;;;;;;;;;5055083;28;20040;-78
2023/07/08 04:59:08;;;;;;;10.00;8.27;;;;;;;;;;5056038;28;20028;-77
2023/07/08 05:01:34;;;;;;;9.00;8.10;;;;;;;;;;5050870;28;20017;-75
2023/07/08 05:04:00;;;;;;;12.80;11.38;;;;;;;;;;5047440;28;21413;-78
2023/07/08 05:06:25;;;;;;;13.25;11.65;;;;;;;;;;5050469;28;20106;-76
2023/07/08 05:08:50;;;;;;;13.20;10.15;;;;;;;;;;5051783;28;20065;-77
2023/07/08 05:11:16;;;;;;;11.10;10.00;;;;;;;;;;5061939;28;20028;-76
2023/07/08 05:13:41;;;;;;;11.00;9.57;;;;;;;;;;5062390;28;20024;-78
2023/07/08 05:16:06;;;;;;;15.02;10.30;;;;;;;;;;5064404;28;20047;-80
2023/07/08 05:18:32;;;;;;;13.73;12.18;;;;;;;;;;5056866;28;20453;-80
2023/07/08 05:20:57;;;;;;;16.55;14.85;;;;;;;;;;5058058;28;20079;-81
2023/07/08 05:23:24;;;;;;;17.77;16.27;;;;;;;;;;5054060;28;20444;-79
2023/07/08 05:25:49;;;;;;;18.05;16.35;;;;;;;;;;5051397;28;20130;-78
2023/07/08 05:28:15;;;;;;;20.60;18.63;;;;;;;;;;5043809;28;20769;-78
2023/07/08 05:30:41;;;;;;;21.58;19.58;;;;;;;;;;5049228;28;20561;-81
2023/07/08 05:33:06;;;;;;;22.13;20.00;;;;;;;;;;5055935;28;20068;-79
2023/07/08 05:35:32;;;;;;;22.05;20.13;;;;;;;;;;5058400;28;20036;-76
2023/07/08 05:37:57;;;;;;;22.33;20.42;;;;;;;;;;5054860;28;20025;-76
2023/07/08 05:40:22;;;;;;;23.17;20.85;;;;;;;;;;5055232;28;20434;-77
2023/07/08 05:42:48;;;;;;;23.02;20.73;;;;;;;;;;5056599;28;21369;-75
2023/07/08 05:45:13;;;;;;;21.77;19.67;;;;;;;;;;5053688;28;20028;-76
2023/07/08 05:47:38;;;;;;;23.25;20.98;;;;;;;;;;5056979;28;20028;-76
2023/07/08 05:50:04;;;;;;;22.35;20.35;;;;;;;;;;5060986;28;20544;-77
2023/07/08 05:52:29;;;;;;;23.08;21.08;;;;;;;;;;5058527;28;20025;-76
2023/07/08 05:54:55;;;;;;;21.63;19.83;;;;;;;;;;5053064;28;20120;-78
2023/07/08 05:57:20;;;;;;;20.13;18.23;;;;;;;;;;5059863;28;20407;-78
2023/07/08 05:59:46;;;;;;;19.77;18.05;;;;;;;;;;5058362;28;20063;-78
2023/07/08 06:02:12;;;;;;;19.38;17.58;;;;;;;;;;5060770;28;20434;-79
2023/07/08 06:04:37;;;;;;;20.48;18.67;;;;;;;;;;5061950;28;20633;-77
2023/07/08 06:07:03;;;;;;;20.13;18.42;;;;;;;;;;5061748;28;20091;-78
2023/07/08 06:09:28;;;;;;;18.85;17.25;;;;;;;;;;5048514;28;20543;-75
2023/07/08 06:11:53;;;;;;;19.55;17.85;;;;;;;;;;5045978;28;20029;-78
2023/07/08 06:14:19;;;;;;;18.80;16.92;;;;;;;;;;5052974;28;20432;-76
2023/07/08 06:16:44;;;;;;;19.38;17.58;;;;;;;;;;5057565;28;20415;-78
2023/07/08 06:19:10;;;;;;;17.77;16.25;;;;;;;;;;5050385;28;20556;-77
2023/07/08 06:21:35;;;;;;;17.77;16.30;;;;;;;;;;5063243;28;20032;-78
2023/07/08 06:24:00;;;;;;;17.98;16.25;;;;;;;;;;5063323;28;20039;-78
2023/07/08 06:26:26;;;;;;;18.38;16.58;;;;;;;;;;5060459;28;20077;-78
2023/07/08 06:28:51;;;;;;;17.75;16.00;;;;;;;;;;5056246;28;20016;-79
2023/07/08 06:31:16;;;;;;;16.40;15.00;;;;;;;;;;5057387;28;20025;-77
2023/07/08 06:33:42;;;;;;;16.95;15.32;;;;;;;;;;5060508;28;20105;-79
2023/07/08 06:36:07;;;;;;;15.35;14.05;;;;;;;;;;5059171;28;20040;-78
2023/07/08 06:38:33;;;;;;;16.17;14.85;;;;;;;;;;5052577;28;20348;-77
2023/07/08 06:40:58;;;;;;;16.08;14.63;;;;;;;;;;5058369;28;20028;-77
2023/07/08 06:43:23;;;;;;;15.55;14.18;;;;;;;;;;5060573;28;20021;-76
2023/07/08 06:45:49;;;;;;;16.65;15.25;;;;;;;;;;5059922;28;20452;-77
2023/07/08 06:48:14;;;;;;;15.02;13.63;;;;;;;;;;5061150;28;20024;-79
2023/07/08 06:50:42;;;;;;;15.75;14.35;;;;;;;;;;5060839;28;20036;-77
2023/07/08 06:53:07;;;;;;;16.42;15.02;;;;;;;;;;5055662;28;20059;-78
2023/07/08 06:55:33;;;;;;;15.35;14.02;;;;;;;;;;5054977;28;20060;-78
2023/07/08 06:57:58;;;;;;;15.98;14.63;;;;;;;;;;5061892;28;20039;-76
2023/07/08 07:00:23;;;;;;;14.77;13.55;;;;;;;;;;5046930;28;20028;-75
2023/07/08 07:02:49;;;;;;;14.45;13.15;;;;;;;;;;5048205;28;20321;-77
2023/07/08 07:05:14;;;;;;;13.30;12.07;;;;;;;;;;5047729;28;20062;-77
2023/07/08 07:07:39;;;;;;;12.75;11.52;;;;;;;;;;5056627;28;20063;-76
2023/07/08 07:10:07;;;;;;;12.73;11.57;;;;;;;;;;5058456;28;20035;-77
2023/07/08 07:12:33;;;;;;;11.63;10.63;;;;;;;;;;5059857;28;20079;-78
2023/07/08 07:14:58;;;;;;;12.57;11.32;;;;;;;;;;5047222;28;20060;-75
2023/07/08 07:17:25;;;;;;;12.05;11.00;;;;;;;;;;5059282;28;20070;-76
2023/07/08 07:19:50;;;;;;;11.55;10.45;;;;;;;;;;5062813;28;20021;-78
2023/07/08 07:22:16;;;;;;;11.80;10.60;;;;;;;;;;5061515;28;20039;-78
2023/07/08 07:24:41;;;;;;;10.30;9.30;;;;;;;;;;5058996;28;20025;-75
2023/07/08 07:27:08;;;;;;;11.13;10.05;;;;;;;;;;5059170;28;20379;-76
2023/07/08 07:29:42;;;;;;;9.98;9.07;;;;;;;;;;5051109;28;20448;-78
2023/07/08 07:32:08;;;;;;;10.43;9.38;;;;;;;;;;5060960;28;20115;-77
2023/07/08 07:34:34;;;;;;;9.55;8.65;;;;;;;;;;5052562;28;20123;-79
2023/07/08 07:36:59;;;;;;;10.15;9.25;;;;;;;;;;5058147;28;20097;-79
2023/07/08 07:39:24;;;;;;;9.90;8.73;;;;;;;;;;5048795;28;20040;-78
2023/07/08 07:41:49;;;;;;;9.70;8.77;;;;;;;;;;5057954;28;20035;-80
2023/07/08 07:44:15;;;;;;;9.18;8.38;;;;;;;;;;5058529;28;20103;-78
2023/07/08 07:46:40;;;;;;;9.80;7.88;;;;;;;;;;5052856;28;20215;-76
2023/07/08 07:49:05;;;;;;;10.13;7.75;;;;;;;;;;5047819;28;20452;-75
2023/07/08 07:51:31;;;;;;;8.43;7.78;;;;;;;;;;5044307;28;20043;-77
2023/07/08 07:53:56;;;;;;;8.38;7.57;;;;;;;;;;5046096;28;20035;-79
2023/07/08 07:56:22;;;;;;;8.38;7.57;;;;;;;;;;5056680;28;20320;-79
2023/07/08 07:58:47;;;;;;;7.78;6.97;;;;;;;;;;5055104;28;20062;-77
2023/07/08 08:01:13;;;;;;;8.20;6.57;;;;;;;;;;5058126;28;20448;-77
2023/07/08 08:03:38;;;;;;;8.80;7.18;;;;;;;;;;5058483;28;20115;-77
2023/07/08 08:06:04;;;;;;;7.65;6.85;;;;;;;;;;5059096;28;20047;-77
2023/07/08 08:08:29;;;;;;;7.25;6.55;;;;;;;;;;5049612;28;20478;-78
2023/07/08 08:10:54;;;;;;;7.55;6.57;;;;;;;;;;5047421;28;20512;-76
2023/07/08 08:13:20;;;;;;;6.30;5.70;;;;;;;;;;5046416;28;20035;-77
2023/07/08 08:15:45;;;;;;;6.35;5.75;;;;;;;;;;5047828;28;20024;-76
2023/07/08 08:18:10;;;;;;;6.75;5.63;;;;;;;;;;5048052;28;20038;-77
2023/07/08 08:20:36;;;;;;;6.53;5.85;;;;;;;;;;5047308;28;20039;-76
2023/07/08 08:23:01;;;;;;;9.98;5.70;;;;;;;;;;5046088;28;20102;-75
2023/07/08 08:25:26;;;;;;;7.43;5.13;;;;;;;;;;5044797;28;20155;-77
2023/07/08 08:27:52;;;;;;;5.78;5.05;;;;;;;;;;5047097;28;20203;-76
2023/07/08 08:30:17;;;;;;;5.93;5.28;;;;;;;;;;5045325;28;20020;-79
2023/07/08 08:32:43;;;;;;;7.68;5.63;;;;;;;;;;5047691;28;20032;-78
2023/07/08 08:35:08;;;;;;;6.10;5.50;;;;;;;;;;5046961;28;20085;-79
2023/07/08 08:37:34;;;;;;;7.35;5.40;;;;;;;;;;5047274;28;20131;-75
2023/07/08 08:39:59;;;;;;;4.82;4.43;;;;;;;;;;5047365;28;20411;-76
2023/07/08 08:42:31;;;;;;;4.78;4.32;;;;;;;;;;5046036;28;20110;-75
2023/07/08 08:44:58;;;;;;;5.47;4.97;;;;;;;;;;5047230;28;20029;-75
2023/07/08 08:47:23;;;;;;;6.20;4.65;;;;;;;;;;5047347;28;20112;-75
2023/07/08 08:49:54;;;;;;;5.90;4.90;;;;;;;;;;5047230;28;20016;-75
2023/07/08 08:52:19;;;;;;;5.63;4.80;;;;;;;;;;5047349;28;20456;-75
2023/07/08 08:54:45;;;;;;;4.90;4.43;;;;;;;;;;5045264;28;20048;-74
2023/07/08 08:57:16;;;;;;;4.80;4.35;;;;;;;;;;5046202;28;20033;-75
2023/07/08 08:59:49;;;;;;;6.10;5.35;;;;;;;;;;5047464;28;20016;-76
2023/07/08 09:02:20;;;;;;;5.28;4.65;;;;;;;;;;5054178;28;20024;-76
2023/07/08 09:04:45;;;;;;;5.18;4.68;;;;;;;;;;5052049;28;20025;-78
2023/07/08 09:07:14;;;;;;;5.13;4.35;;;;;;;;;;5049993;28;20117;-77
2023/07/08 09:09:45;;;;;;;4.60;4.20;;;;;;;;;;5047882;28;20485;-77
2023/07/08 09:12:14;;;;;;;5.00;4.57;;;;;;;;;;5058076;28;20253;-78
2023/07/08 09:14:40;;;;;;;4.40;4.00;;;;;;;;;;5059736;28;20327;-77
2023/07/08 09:17:19;;;;;;;6.93;4.50;;;;;;;;;;5053267;28;20048;-77
2023/07/08 09:19:48;;;;;;;5.05;4.05;;;;;;;;;;5046870;28;20075;-78
2023/07/08 09:22:13;;;;;;;;;;;;;;;;;;5047131;28;20028;-77
2023/07/08 09:24:51;;;;;;;4.83;4.30;;;;;;;;;;5046733;28;19915;-77
2023/07/08 09:27:16;;;;;;;8.73;5.22;;;;;;;;;;5047000;28;20451;-76
2023/07/08 09:29:42;;;;;;;6.32;4.15;;;;;;;;;;5050238;28;20154;-78
2023/07/08 09:32:16;;;;;;;4.45;4.03;;;;;;;;;;5051726;28;20036;-79
2023/07/08 09:34:43;;;;;;;4.43;4.00;;;;;;;;;;5059224;28;20036;-78
2023/07/08 09:37:20;;;;;;;4.65;4.15;;;;;;;;;;5058928;28;20136;-76
2023/07/08 09:39:45;;;;;;;4.43;3.80;;;;;;;;;;5049348;28;20056;-81
2023/07/08 09:42:13;;;;;;;5.40;4.10;;;;;;;;;;5059081;28;20062;-79
2023/07/08 09:44:38;;;;;;;6.45;3.90;;;;;;;;;;5058341;28;20082;-78
2023/07/08 09:47:17;;;;;;;4.50;3.90;;;;;;;;;;5057335;28;20032;-76
2023/07/08 09:49:44;;;;;;;4.63;3.97;;;;;;;;;;5054099;28;20110;-77
2023/07/08 09:52:12;;;;;;;4.75;4.35;;;;;;;;;;5057970;28;20347;-75
2023/07/08 09:54:37;;;;;;;5.60;4.50;;;;;;;;;;5051238;28;20094;-77
2023/07/08 09:57:06;;;;;;;6.72;4.93;;;;;;;;;;5057966;28;20387;-78
2023/07/08 09:59:34;;;;;;;5.68;3.58;;;;;;;;;;5053618;28;20029;-80
2023/07/08 10:02:14;;;;;;;6.15;4.25;;;;;;;;;;5049706;28;20212;-79
2023/07/08 10:04:39;;;;;;;5.38;4.47;;;;;;;;;;5048889;28;20134;-78
2023/07/08 10:07:10;;;;;;;6.13;4.60;;;;;;;;;;5050905;28;20454;-78
2023/07/08 10:09:36;;;;;;;6.03;4.43;;;;;;;;;;5048739;28;20404;-77
2023/07/08 10:12:02;;;;;;;7.07;4.00;;;;;;;;;;5058682;28;20020;-80
2023/07/08 10:14:39;;;;;;;5.35;4.35;;;;;;;;;;5052293;28;20039;-80
2023/07/08 10:17:04;;;;;;;4.68;4.15;;;;;;;;;;5055476;28;20028;-76
2023/07/08 10:19:30;;;;;;;10.70;4.13;;;;;;;;;;5055807;28;20352;-79
2023/07/08 10:22:14;;;;;;;5.32;4.05;;;;;;;;;;5053616;28;20401;-78
2023/07/08 10:24:48;;;;;;;4.60;4.18;;;;;;;;;;5058520;28;20379;-79
2023/07/08 10:27:27;;;;;;;5.15;4.65;;;;;;;;;;5055467;28;20407;-78
2023/07/08 10:30:07;;;;;;;4.32;3.95;;;;;;;;;;5056968;28;20039;-80
2023/07/08 10:32:37;;;;;;;5.13;3.83;;;;;;;;;;5051850;28;20028;-76
2023/07/08 10:35:18;;;;;;;6.45;4.38;;;;;;;;;;5051390;28;20682;-77
2023/07/08 10:38:09;;;;;;;4.63;4.22;;;;;;;;;;5057883;28;21673;-76
2023/07/08 10:40:41;;;;;;;4.53;4.13;;;;;;;;;;5056076;28;20055;-78
2023/07/08 10:43:26;;;;;;;7.03;4.60;;;;;;;;;;5054983;28;20143;-77
2023/07/08 10:46:10;;;;;;;4.57;4.18;;;;;;;;;;5053820;28;20089;-79
2023/07/08 10:48:48;;;;;;;9.40;4.38;;;;;;;;;;5053991;28;20036;-80
2023/07/08 10:51:13;;;;;;;5.28;4.72;;;;;;;;;;5057785;28;20028;-77
2023/07/08 10:53:57;;;;;;;5.50;3.95;;;;;;;;;;5048920;28;20648;-77
2023/07/08 10:56:44;;;;;;;4.18;3.83;;;;;;;;;;5049277;28;20672;-78
2023/07/08 10:59:34;;;;;;;4.35;3.85;;;;;;;;;;5048780;28;20024;-78
2023/07/08 11:02:27;;;;;;;4.60;4.15;;;;;;;;;;5048317;28;20090;-76
2023/07/08 11:05:01;;;;;;;4.38;3.95;;;;;;;;;;5046316;28;20355;-77
2023/07/08 11:07:29;;;;;;;6.07;4.43;;;;;;;;;;5047802;28;20086;-79
2023/07/08 11:09:58;;;;;;;4.85;3.78;;;;;;;;;;5048876;28;20509;-78
2023/07/08 11:12:49;;;;;;;7.20;3.80;;;;;;;;;;5048292;28;20028;-78
2023/07/08 11:15:15;;;;;;;4.35;3.90;;;;;;;;;;5047027;28;20033;-78
2023/07/08 11:17:52;;;;;;;4.95;4.03;;;;;;;;;;5047478;28;20031;-79
2023/07/08 11:20:21;;;;;;;7.00;4.15;;;;;;;;;;5049206;28;20032;-76
2023/07/08 11:22:51;;;;;;;5.28;4.20;;;;;;;;;;5058508;28;20016;-78
2023/07/08 11:25:18;;;;;;;4.43;3.58;;;;;;;;;;5058770;28;20020;-79
2023/07/08 11:27:46;;;;;;;4.72;4.22;;;;;;;;;;5062033;28;20025;-78
2023/07/08 11:30:11;;;;;;;8.13;4.18;;;;;;;;;;5058266;28;20032;-77
2023/07/08 11:32:39;;;;;;;4.22;3.83;;;;;;;;;;5057336;28;20478;-77
2023/07/08 11:35:05;;;;;;;4.82;4.38;;;;;;;;;;5060201;28;20081;-81
2023/07/08 11:37:32;;;;;;;7.43;5.28;;;;;;;;;;5060979;28;20116;-77
2023/07/08 11:40:08;;;;;;;6.22;4.90;;;;;;;;;;5056196;28;20108;-76
2023/07/08 11:42:40;;;;;;;4.35;3.95;;;;;;;;;;5061656;28;20028;-79
2023/07/08 11:45:23;;;;;;;4.75;3.92;;;;;;;;;;5055040;28;20434;-78
2023/07/08 11:47:49;;;;;;;7.65;3.90;;;;;;;;;;5063333;28;20036;-78
2023/07/08 11:50:19;;;;;;;3.80;3.40;;;;;;;;;;5046891;28;20050;-78
2023/07/08 11:52:51;;;;;;;4.15;3.75;;;;;;;;;;5047929;28;20524;-78
2023/07/08 11:55:21;;;;;;;5.05;4.40;;;;;;;;;;5048401;28;20028;-77
2023/07/08 11:57:52;;;;;;;4.07;3.67;;;;;;;;;;5063369;28;20025;-80
2023/07/08 12:00:21;;;;;;;4.82;3.38;;;;;;;;;;5044762;28;20020;-77
2023/07/08 12:02:50;;;;;;;5.30;4.45;;;;;;;;;;5046380;28;20032;-79
2023/07/08 12:05:15;;;;;;;4.30;3.95;;;;;;;;;;5046968;28;20024;-78
2023/07/08 12:07:43;;;;;;;4.45;4.05;;;;;;;;;;5061901;28;20072;-78
2023/07/08 12:10:22;;;;;;;7.60;4.40;;;;;;;;;;5046304;28;20467;-77
2023/07/08 12:12:48;;;;;;;4.55;3.95;;;;;;;;;;5046526;28;20028;-76
2023/07/08 12:15:22;;;;;;;3.90;3.60;;;;;;;;;;5047854;28;20039;-78
2023/07/08 12:17:48;;;;;;;6.70;4.20;;;;;;;;;;5050441;28;20020;-78
2023/07/08 12:20:19;;;;;;;4.43;4.03;;;;;;;;;;5061121;28;20051;-76
2023/07/08 12:22:44;;;;;;;4.82;4.20;;;;;;;;;;5060239;28;20203;-77
2023/07/08 12:25:16;;;;;;;5.90;3.72;;;;;;;;;;5043389;28;20948;-77
2023/07/08 12:27:41;;;;;;;5.20;4.00;;;;;;;;;;5047464;28;20032;-76
2023/07/08 12:30:08;;;;;;;4.40;4.00;;;;;;;;;;5047405;28;20122;-76
2023/07/08 12:32:34;;;;;;;4.60;4.13;;;;;;;;;;5049746;28;20020;-79
2023/07/08 12:34:59;;;;;;;6.25;4.35;;;;;;;;;;5046033;28;20024;-76
2023/07/08 12:37:24;;;;;;;4.82;3.67;;;;;;;;;;5043955;28;20051;-76
2023/07/08 12:39:59;;;;;;;4.65;3.55;;;;;;;;;;5043047;28;20032;-76
2023/07/08 12:42:24;;;;;;;6.10;3.90;;;;;;;;;;5042729;28;20277;-77
2023/07/08 12:44:50;;;;;;;4.82;2.90;;;;;;;;;;5043094;28;20525;-77
2023/07/08 12:47:21;;;;;;;6.35;3.60;;;;;;;;;;5041103;28;20063;-77
2023/07/08 12:49:46;;;;;;;4.22;3.83;;;;;;;;;;5044084;28;20073;-80
2023/07/08 12:52:22;;;;;;;10.20;3.30;;;;;;;;;;5055176;28;20036;-77
2023/07/08 12:54:47;;;;;;;3.67;3.38;;;;;;;;;;5049837;28;20031;-76
2023/07/08 12:57:14;;;;;;;3.47;3.17;;;;;;;;;;5065196;28;20036;-77
2023/07/08 12:59:41;;;;;;;4.38;3.42;;;;;;;;;;5061778;28;21099;-78
2023/07/08 13:02:15;;;;;;;3.58;3.20;;;;;;;;;;5060979;28;20468;-78
2023/07/08 13:04:41;;;;;;;4.00;3.38;;;;;;;;;;5061904;28;20056;-75
2023/07/08 13:07:09;;;;;;;5.03;3.78;;;;;;;;;;5059460;28;20090;-76
2023/07/08 13:09:37;;;;;;;5.88;3.67;;;;;;;;;;5048931;28;20020;-77
2023/07/08 13:12:04;;;;;;;3.97;3.03;;;;;;;;;;5058043;28;20028;-77
2023/07/08 13:14:30;;;;;;;5.50;3.55;;;;;;;;;;5045695;28;20036;-78
2023/07/08 13:16:55;;;;;;;4.05;3.47;;;;;;;;;;5044145;28;20397;-77
2023/07/08 13:19:21;;;;;;;8.73;3.17;;;;;;;;;;5044685;28;20090;-78
2023/07/08 13:21:47;;;;;;;4.07;3.70;;;;;;;;;;5045676;28;20419;-78
2023/07/08 13:24:12;;;;;;;3.70;3.40;;;;;;;;;;5046528;28;20078;-79
2023/07/08 13:26:38;;;;;;;3.55;3.13;;;;;;;;;;5046021;28;20031;-76
2023/07/08 13:29:21;;;;;;;3.85;3.38;;;;;;;;;;5048427;28;20047;-75
2023/07/08 13:31:48;;;;;;;4.20;3.08;;;;;;;;;;5050611;28;20029;-78
2023/07/08 13:34:18;;;;;;;4.13;3.28;;;;;;;;;;5049970;28;20475;-76
2023/07/08 13:36:45;;;;;;;4.07;3.35;;;;;;;;;;5050023;28;20032;-77
2023/07/08 13:39:26;;;;;;;3.67;3.22;;;;;;;;;;5050674;28;21041;-76
2023/07/08 13:41:51;;;;;;;4.10;2.97;;;;;;;;;;5050041;28;20032;-78
2023/07/08 13:44:17;;;;;;;3.55;3.15;;;;;;;;;;5050569;28;20023;-77
2023/07/08 13:46:53;;;;;;;4.15;3.00;;;;;;;;;;5051300;28;20123;-76
2023/07/08 13:49:27;;;;;;;5.13;3.13;;;;;;;;;;5055685;28;20078;-78
2023/07/08 13:52:04;;;;;;;3.40;3.10;;;;;;;;;;5063080;28;20419;-77
2023/07/08 13:54:35;;;;;;;3.20;2.90;;;;;;;;;;5053752;28;20351;-78
2023/07/08 13:57:02;;;;;;;3.17;2.80;;;;;;;;;;5048098;28;20036;-77
2023/07/08 13:59:27;;;;;;;3.75;3.00;;;;;;;;;;5050347;28;20067;-77
2023/07/08 14:01:55;;;;;;;3.85;3.40;;;;;;;;;;5049864;28;22720;-77
2023/07/08 14:04:29;;;;;;;4.00;3.42;;;;;;;;;;5050051;28;20093;-78
2023/07/08 14:06:54;;;;;;;4.07;3.22;;;;;;;;;;5047630;28;20056;-76
2023/07/08 14:09:21;;;;;;;4.05;3.25;;;;;;;;;;5048207;28;20029;-75
2023/07/08 14:11:47;;;;;;;4.15;2.85;;;;;;;;;;5052555;28;20025;-77
2023/07/08 14:14:12;;;;;;;4.10;3.13;;;;;;;;;;5061821;28;20367;-77
2023/07/08 14:16:45;;;;;;;7.22;3.35;;;;;;;;;;5051818;28;20081;-75
2023/07/08 14:19:20;;;;;;;3.30;3.00;;;;;;;;;;5061605;28;20020;-77
2023/07/08 14:21:46;;;;;;;3.10;2.80;;;;;;;;;;5048902;28;20028;-77
2023/07/08 14:24:12;;;;;;;4.13;3.08;;;;;;;;;;5047046;28;20032;-76
2023/07/08 14:26:38;;;;;;;3.35;3.05;;;;;;;;;;5047364;28;20033;-76
2023/07/08 14:29:04;;;;;;;5.07;3.40;;;;;;;;;;5054886;28;20066;-76
2023/07/08 14:31:29;;;;;;;3.20;2.90;;;;;;;;;;5062203;28;20340;-76
2023/07/08 14:34:00;;;;;;;3.65;3.22;;;;;;;;;;5061726;28;20105;-77
2023/07/08 14:36:25;;;;;;;5.65;3.30;;;;;;;;;;5076253;28;20037;-77
2023/07/08 14:38:51;;;;;;;3.03;2.83;;;;;;;;;;5056108;28;20037;-76